CYOW/YOW METAR and TAF weather

Enter ICAO airport designator
Station Type Date Time Source
CYOW METAR 2020/01/20 16:00 UTC NOAA

CYOW 201600Z 25011KT 15SM SKC M15/M20 A3038 RMK SLP298


Station Type Date Time Source
CYOW Decoded METAR 2020/01/20 16:00 UTC NOAA

Ottawa Int'L. Ont., Canada (CYOW) 45-19N 075-40W 114M
Jan 20, 2020 - 11:00 AM EST / 2020.01.20 1600 UTC
Wind: from the WSW (250 degrees) at 13 MPH (11 KT):0
Visibility: 15 mile(s):0
Sky conditions: clear
Temperature: 5 F (-15 C)
Windchill: -11 F (-24 C):2
Dew Point: -4 F (-20 C)
Relative Humidity: 65%
Pressure (altimeter): 30.38 in. Hg (1028 hPa)
ob: CYOW 201600Z 25011KT 15SM SKC M15/M20 A3038 RMK SLP298
cycle: 16

Station Type Date Time Source
CYOW TAF 2020/01/20 15:42 UTC NOAA

TAF CYOW 201438Z 2015/2112 27010G20KT P6SM SKC
BECMG 2021/2023 28008KT
FM211000 26005KT P6SM SCT150
RMK NXT FCST BY 201800Z

Example: see airport list